Terminal Aerodrome Forecast
Issued by NWS

Current Version | Previous Version | Graphics & Text | Print | Product List | Glossary On
Versions: 1 2 3 4 5 6 7 8 9 10 11 12 13 14 15 16 17 18 19 20 21 22 23 24
460
FTUS41 KPBZ 040524
TAFHLG
TAF
KHLG 040524Z 0406/0506 28013KT P6SM OVC035
     FM040700 28008KT P6SM OVC025
     FM042000 27008KT P6SM BKN035=

USA.gov is the U.S. government's official web portal to all federal, state and local government web resources and services.